sensor_id;sensor_type;location;lat;lon;timestamp;P1;durP1;ratioP1;P2;durP2;ratioP2
59555;SDS011;45374;52.746;6.304;2022-09-29T00:01:07;6.78;;;4.63;;
59555;SDS011;45374;52.746;6.304;2022-09-29T00:03:33;9.00;;;5.22;;
59555;SDS011;45374;52.746;6.304;2022-09-29T00:06:00;8.98;;;5.57;;
59555;SDS011;45374;52.746;6.304;2022-09-29T00:08:27;8.50;;;5.70;;
59555;SDS011;45374;52.746;6.304;2022-09-29T00:10:54;282.60;;;13.98;;
59555;SDS011;45374;52.746;6.304;2022-09-29T00:13:20;121.53;;;6.10;;
59555;SDS011;45374;52.746;6.304;2022-09-29T00:15:57;5.05;;;2.72;;
59555;SDS011;45374;52.746;6.304;2022-09-29T00:18:24;6.18;;;4.28;;
59555;SDS011;45374;52.746;6.304;2022-09-29T00:21:06;5.40;;;4.30;;
59555;SDS011;45374;52.746;6.304;2022-09-29T00:23:38;5.55;;;4.13;;
59555;SDS011;45374;52.746;6.304;2022-09-29T00:28:50;5.50;;;4.00;;
59555;SDS011;45374;52.746;6.304;2022-09-29T00:31:18;7.95;;;4.15;;
59555;SDS011;45374;52.746;6.304;2022-09-29T00:33:44;6.97;;;4.30;;
59555;SDS011;45374;52.746;6.304;2022-09-29T00:36:11;5.60;;;3.50;;
59555;SDS011;45374;52.746;6.304;2022-09-29T00:38:39;4.25;;;3.75;;
59555;SDS011;45374;52.746;6.304;2022-09-29T00:41:05;5.35;;;4.53;;
59555;SDS011;45374;52.746;6.304;2022-09-29T00:43:46;5.65;;;4.60;;
59555;SDS011;45374;52.746;6.304;2022-09-29T00:46:12;80.95;;;6.47;;
59555;SDS011;45374;52.746;6.304;2022-09-29T00:48:39;301.23;;;13.00;;
59555;SDS011;45374;52.746;6.304;2022-09-29T00:51:05;52.50;;;4.43;;
59555;SDS011;45374;52.746;6.304;2022-09-29T00:53:31;3.70;;;3.25;;
59555;SDS011;45374;52.746;6.304;2022-09-29T00:55:59;3.92;;;3.50;;
59555;SDS011;45374;52.746;6.304;2022-09-29T00:58:34;4.70;;;4.00;;
59555;SDS011;45374;52.746;6.304;2022-09-29T01:01:04;5.18;;;4.65;;
59555;SDS011;45374;52.746;6.304;2022-09-29T01:03:32;6.82;;;5.13;;
59555;SDS011;45374;52.746;6.304;2022-09-29T01:06:07;11.40;;;6.75;;
59555;SDS011;45374;52.746;6.304;2022-09-29T01:08:50;9.23;;;6.93;;
59555;SDS011;45374;52.746;6.304;2022-09-29T01:11:23;31.67;;;6.82;;
59555;SDS011;45374;52.746;6.304;2022-09-29T01:13:49;9.73;;;4.53;;
59555;SDS011;45374;52.746;6.304;2022-09-29T01:16:16;40.42;;;4.50;;
59555;SDS011;45374;52.746;6.304;2022-09-29T01:18:42;51.47;;;4.35;;
59555;SDS011;45374;52.746;6.304;2022-09-29T01:21:16;7.55;;;4.03;;
59555;SDS011;45374;52.746;6.304;2022-09-29T01:29:57;4.85;;;4.15;;
59555;SDS011;45374;52.746;6.304;2022-09-29T01:41:51;7.78;;;3.08;;
59555;SDS011;45374;52.746;6.304;2022-09-29T01:47:22;4.80;;;3.03;;
59555;SDS011;45374;52.746;6.304;2022-09-29T01:53:03;5.45;;;4.32;;
59555;SDS011;45374;52.746;6.304;2022-09-29T01:55:34;6.43;;;4.65;;
59555;SDS011;45374;52.746;6.304;2022-09-29T01:58:06;6.82;;;5.65;;
59555;SDS011;45374;52.746;6.304;2022-09-29T02:00:39;8.07;;;5.68;;
59555;SDS011;45374;52.746;6.304;2022-09-29T02:03:24;9.15;;;5.93;;
59555;SDS011;45374;52.746;6.304;2022-09-29T02:05:56;8.90;;;6.70;;
59555;SDS011;45374;52.746;6.304;2022-09-29T02:11:03;6.60;;;5.35;;
59555;SDS011;45374;52.746;6.304;2022-09-29T02:13:35;8.13;;;6.13;;
59555;SDS011;45374;52.746;6.304;2022-09-29T02:16:13;9.13;;;6.22;;
59555;SDS011;45374;52.746;6.304;2022-09-29T02:18:47;7.97;;;6.15;;
59555;SDS011;45374;52.746;6.304;2022-09-29T02:21:17;10.05;;;6.10;;
59555;SDS011;45374;52.746;6.304;2022-09-29T02:23:43;8.95;;;5.88;;
59555;SDS011;45374;52.746;6.304;2022-09-29T02:26:09;12.52;;;6.20;;
59555;SDS011;45374;52.746;6.304;2022-09-29T02:28:36;13.02;;;6.25;;
59555;SDS011;45374;52.746;6.304;2022-09-29T02:31:03;7.55;;;6.03;;
59555;SDS011;45374;52.746;6.304;2022-09-29T02:33:29;9.65;;;6.38;;
59555;SDS011;45374;52.746;6.304;2022-09-29T02:57:50;96.50;;;9.02;;
59555;SDS011;45374;52.746;6.304;2022-09-29T03:00:22;52.28;;;6.07;;
59555;SDS011;45374;52.746;6.304;2022-09-29T03:02:50;12.15;;;4.90;;
59555;SDS011;45374;52.746;6.304;2022-09-29T03:05:17;7.68;;;5.65;;
59555;SDS011;45374;52.746;6.304;2022-09-29T03:07:44;9.65;;;7.20;;
59555;SDS011;45374;52.746;6.304;2022-09-29T03:10:10;7.78;;;6.63;;
59555;SDS011;45374;52.746;6.304;2022-09-29T03:12:37;8.65;;;7.03;;
59555;SDS011;45374;52.746;6.304;2022-09-29T03:15:03;11.43;;;8.00;;
59555;SDS011;45374;52.746;6.304;2022-09-29T03:17:30;10.63;;;7.78;;
59555;SDS011;45374;52.746;6.304;2022-09-29T03:19:56;12.68;;;8.35;;
59555;SDS011;45374;52.746;6.304;2022-09-29T03:22:22;14.40;;;8.23;;
59555;SDS011;45374;52.746;6.304;2022-09-29T03:24:48;17.75;;;8.93;;
59555;SDS011;45374;52.746;6.304;2022-09-29T03:27:14;17.23;;;8.70;;
59555;SDS011;45374;52.746;6.304;2022-09-29T03:29:39;18.45;;;8.93;;
59555;SDS011;45374;52.746;6.304;2022-09-29T03:32:05;12.52;;;8.70;;
59555;SDS011;45374;52.746;6.304;2022-09-29T03:34:31;22.17;;;8.68;;
59555;SDS011;45374;52.746;6.304;2022-09-29T03:36:58;13.90;;;7.75;;
59555;SDS011;45374;52.746;6.304;2022-09-29T03:39:23;8.55;;;6.07;;
59555;SDS011;45374;52.746;6.304;2022-09-29T03:41:50;8.77;;;6.45;;
59555;SDS011;45374;52.746;6.304;2022-09-29T03:44:15;9.05;;;7.18;;
59555;SDS011;45374;52.746;6.304;2022-09-29T03:46:41;13.23;;;8.00;;
59555;SDS011;45374;52.746;6.304;2022-09-29T03:49:10;12.27;;;8.70;;
59555;SDS011;45374;52.746;6.304;2022-09-29T03:51:36;12.52;;;8.57;;
59555;SDS011;45374;52.746;6.304;2022-09-29T03:54:02;10.98;;;8.02;;
59555;SDS011;45374;52.746;6.304;2022-09-29T03:56:28;9.75;;;7.22;;
59555;SDS011;45374;52.746;6.304;2022-09-29T03:58:54;8.60;;;7.10;;
59555;SDS011;45374;52.746;6.304;2022-09-29T04:01:19;11.88;;;7.82;;
59555;SDS011;45374;52.746;6.304;2022-09-29T04:03:46;17.90;;;9.57;;
59555;SDS011;45374;52.746;6.304;2022-09-29T04:06:12;17.30;;;9.68;;
59555;SDS011;45374;52.746;6.304;2022-09-29T04:08:38;20.42;;;10.07;;
59555;SDS011;45374;52.746;6.304;2022-09-29T04:11:04;19.48;;;9.73;;
59555;SDS011;45374;52.746;6.304;2022-09-29T04:13:30;13.30;;;8.35;;
59555;SDS011;45374;52.746;6.304;2022-09-29T04:15:57;12.88;;;8.70;;
59555;SDS011;45374;52.746;6.304;2022-09-29T04:18:24;12.98;;;9.70;;
59555;SDS011;45374;52.746;6.304;2022-09-29T04:20:49;18.00;;;9.85;;
59555;SDS011;45374;52.746;6.304;2022-09-29T04:23:16;15.95;;;9.95;;
59555;SDS011;45374;52.746;6.304;2022-09-29T04:25:43;13.63;;;9.70;;
59555;SDS011;45374;52.746;6.304;2022-09-29T04:28:09;12.07;;;9.43;;
59555;SDS011;45374;52.746;6.304;2022-09-29T04:30:35;13.73;;;9.60;;
59555;SDS011;45374;52.746;6.304;2022-09-29T04:33:00;13.02;;;9.98;;
59555;SDS011;45374;52.746;6.304;2022-09-29T04:35:26;15.18;;;9.98;;
59555;SDS011;45374;52.746;6.304;2022-09-29T04:37:55;17.98;;;10.93;;
59555;SDS011;45374;52.746;6.304;2022-09-29T04:40:21;22.65;;;11.73;;
59555;SDS011;45374;52.746;6.304;2022-09-29T04:42:47;18.52;;;10.98;;
59555;SDS011;45374;52.746;6.304;2022-09-29T04:45:13;24.23;;;11.63;;
59555;SDS011;45374;52.746;6.304;2022-09-29T04:47:39;29.48;;;12.98;;
59555;SDS011;45374;52.746;6.304;2022-09-29T04:50:04;26.98;;;12.38;;
59555;SDS011;45374;52.746;6.304;2022-09-29T04:52:31;41.38;;;12.23;;
59555;SDS011;45374;52.746;6.304;2022-09-29T04:54:56;38.35;;;13.73;;
59555;SDS011;45374;52.746;6.304;2022-09-29T04:57:22;38.53;;;14.32;;
59555;SDS011;45374;52.746;6.304;2022-09-29T04:59:47;56.17;;;12.25;;
59555;SDS011;45374;52.746;6.304;2022-09-29T05:02:15;499.30;;;26.50;;
59555;SDS011;45374;52.746;6.304;2022-09-29T05:04:43;65.88;;;9.82;;
59555;SDS011;45374;52.746;6.304;2022-09-29T05:07:08;138.68;;;12.10;;
59555;SDS011;45374;52.746;6.304;2022-09-29T05:09:34;107.78;;;11.63;;
59555;SDS011;45374;52.746;6.304;2022-09-29T05:12:00;28.15;;;9.95;;
59555;SDS011;45374;52.746;6.304;2022-09-29T05:14:26;20.05;;;9.05;;
59555;SDS011;45374;52.746;6.304;2022-09-29T05:16:55;20.33;;;9.57;;
59555;SDS011;45374;52.746;6.304;2022-09-29T05:19:21;32.42;;;11.30;;
59555;SDS011;45374;52.746;6.304;2022-09-29T05:21:47;15.77;;;10.13;;
59555;SDS011;45374;52.746;6.304;2022-09-29T05:24:13;16.92;;;9.55;;
59555;SDS011;45374;52.746;6.304;2022-09-29T05:26:38;29.70;;;12.25;;
59555;SDS011;45374;52.746;6.304;2022-09-29T05:29:04;23.45;;;12.07;;
59555;SDS011;45374;52.746;6.304;2022-09-29T05:31:30;33.92;;;12.68;;
59555;SDS011;45374;52.746;6.304;2022-09-29T05:33:56;37.88;;;12.80;;
59555;SDS011;45374;52.746;6.304;2022-09-29T05:36:21;29.70;;;13.45;;
59555;SDS011;45374;52.746;6.304;2022-09-29T05:38:48;23.50;;;12.23;;
59555;SDS011;45374;52.746;6.304;2022-09-29T05:41:14;35.97;;;13.43;;
59555;SDS011;45374;52.746;6.304;2022-09-29T05:43:46;27.95;;;13.82;;
59555;SDS011;45374;52.746;6.304;2022-09-29T05:46:13;33.28;;;12.95;;
59555;SDS011;45374;52.746;6.304;2022-09-29T05:48:40;26.08;;;13.10;;
59555;SDS011;45374;52.746;6.304;2022-09-29T05:51:11;20.15;;;12.23;;
59555;SDS011;45374;52.746;6.304;2022-09-29T05:53:39;25.30;;;13.90;;
59555;SDS011;45374;52.746;6.304;2022-09-29T05:56:09;19.45;;;13.35;;
59555;SDS011;45374;52.746;6.304;2022-09-29T05:58:37;19.75;;;12.60;;
59555;SDS011;45374;52.746;6.304;2022-09-29T06:01:04;23.27;;;13.63;;
59555;SDS011;45374;52.746;6.304;2022-09-29T06:03:32;20.48;;;13.30;;
59555;SDS011;45374;52.746;6.304;2022-09-29T06:06:03;22.60;;;13.45;;
59555;SDS011;45374;52.746;6.304;2022-09-29T06:08:33;19.33;;;13.07;;
59555;SDS011;45374;52.746;6.304;2022-09-29T06:11:03;30.00;;;15.43;;
59555;SDS011;45374;52.746;6.304;2022-09-29T06:13:37;23.58;;;14.05;;
59555;SDS011;45374;52.746;6.304;2022-09-29T06:16:04;24.88;;;14.80;;
59555;SDS011;45374;52.746;6.304;2022-09-29T06:18:30;24.23;;;13.98;;
59555;SDS011;45374;52.746;6.304;2022-09-29T06:21:38;19.00;;;12.48;;
59555;SDS011;45374;52.746;6.304;2022-09-29T06:23:49;17.15;;;12.40;;
59555;SDS011;45374;52.746;6.304;2022-09-29T06:26:16;20.48;;;13.18;;
59555;SDS011;45374;52.746;6.304;2022-09-29T06:28:43;16.38;;;11.65;;
59555;SDS011;45374;52.746;6.304;2022-09-29T06:31:13;28.23;;;13.57;;
59555;SDS011;45374;52.746;6.304;2022-09-29T06:33:41;32.97;;;12.25;;
59555;SDS011;45374;52.746;6.304;2022-09-29T06:36:09;37.65;;;14.65;;
59555;SDS011;45374;52.746;6.304;2022-09-29T06:38:58;31.10;;;13.57;;
59555;SDS011;45374;52.746;6.304;2022-09-29T06:41:24;34.22;;;13.55;;
59555;SDS011;45374;52.746;6.304;2022-09-29T06:43:51;39.80;;;14.63;;
59555;SDS011;45374;52.746;6.304;2022-09-29T06:46:16;42.17;;;15.20;;
59555;SDS011;45374;52.746;6.304;2022-09-29T06:48:42;45.97;;;14.38;;
59555;SDS011;45374;52.746;6.304;2022-09-29T06:51:09;53.45;;;15.20;;
59555;SDS011;45374;52.746;6.304;2022-09-29T06:53:34;43.65;;;15.43;;
59555;SDS011;45374;52.746;6.304;2022-09-29T06:56:00;33.75;;;15.02;;
59555;SDS011;45374;52.746;6.304;2022-09-29T06:58:26;38.10;;;15.45;;
59555;SDS011;45374;52.746;6.304;2022-09-29T07:00:53;34.22;;;15.75;;
59555;SDS011;45374;52.746;6.304;2022-09-29T07:03:19;25.20;;;15.00;;
59555;SDS011;45374;52.746;6.304;2022-09-29T07:05:45;28.10;;;15.50;;
59555;SDS011;45374;52.746;6.304;2022-09-29T07:08:11;24.77;;;15.43;;
59555;SDS011;45374;52.746;6.304;2022-09-29T07:10:37;27.80;;;15.70;;
59555;SDS011;45374;52.746;6.304;2022-09-29T07:13:03;26.58;;;16.50;;
59555;SDS011;45374;52.746;6.304;2022-09-29T07:15:29;23.98;;;15.90;;
59555;SDS011;45374;52.746;6.304;2022-09-29T07:17:59;34.80;;;18.90;;
59555;SDS011;45374;52.746;6.304;2022-09-29T07:20:28;28.23;;;17.27;;
59555;SDS011;45374;52.746;6.304;2022-09-29T07:22:58;30.35;;;18.05;;
59555;SDS011;45374;52.746;6.304;2022-09-29T07:25:24;31.63;;;18.70;;
59555;SDS011;45374;52.746;6.304;2022-09-29T07:27:49;32.33;;;18.83;;
59555;SDS011;45374;52.746;6.304;2022-09-29T07:30:16;32.72;;;18.92;;
59555;SDS011;45374;52.746;6.304;2022-09-29T07:32:42;30.05;;;18.23;;
59555;SDS011;45374;52.746;6.304;2022-09-29T07:35:08;30.95;;;19.17;;
59555;SDS011;45374;52.746;6.304;2022-09-29T07:37:34;32.78;;;19.98;;
59555;SDS011;45374;52.746;6.304;2022-09-29T07:39:59;38.13;;;21.30;;
59555;SDS011;45374;52.746;6.304;2022-09-29T07:42:26;35.40;;;20.48;;
59555;SDS011;45374;52.746;6.304;2022-09-29T07:44:53;32.92;;;20.58;;
59555;SDS011;45374;52.746;6.304;2022-09-29T07:47:21;34.35;;;20.77;;
59555;SDS011;45374;52.746;6.304;2022-09-29T07:49:47;40.60;;;22.48;;
59555;SDS011;45374;52.746;6.304;2022-09-29T07:52:13;41.95;;;22.95;;
59555;SDS011;45374;52.746;6.304;2022-09-29T07:54:39;36.72;;;22.02;;
59555;SDS011;45374;52.746;6.304;2022-09-29T07:57:05;39.15;;;22.50;;
59555;SDS011;45374;52.746;6.304;2022-09-29T07:59:30;40.00;;;22.83;;
59555;SDS011;45374;52.746;6.304;2022-09-29T08:01:56;38.92;;;22.60;;
59555;SDS011;45374;52.746;6.304;2022-09-29T08:04:22;47.03;;;23.70;;
59555;SDS011;45374;52.746;6.304;2022-09-29T08:06:48;42.22;;;23.52;;
59555;SDS011;45374;52.746;6.304;2022-09-29T08:09:14;45.17;;;24.40;;
59555;SDS011;45374;52.746;6.304;2022-09-29T08:11:40;43.42;;;23.05;;
59555;SDS011;45374;52.746;6.304;2022-09-29T08:14:07;35.97;;;22.00;;
59555;SDS011;45374;52.746;6.304;2022-09-29T08:16:33;33.78;;;20.20;;
59555;SDS011;45374;52.746;6.304;2022-09-29T08:19:00;36.42;;;22.23;;
59555;SDS011;45374;52.746;6.304;2022-09-29T08:21:26;34.30;;;20.75;;
59555;SDS011;45374;52.746;6.304;2022-09-29T08:23:53;37.97;;;21.52;;
59555;SDS011;45374;52.746;6.304;2022-09-29T08:26:20;37.08;;;21.40;;
59555;SDS011;45374;52.746;6.304;2022-09-29T08:28:46;39.88;;;21.52;;
59555;SDS011;45374;52.746;6.304;2022-09-29T08:31:13;34.10;;;21.63;;
59555;SDS011;45374;52.746;6.304;2022-09-29T08:33:43;35.08;;;21.38;;
59555;SDS011;45374;52.746;6.304;2022-09-29T08:36:09;35.30;;;21.35;;
59555;SDS011;45374;52.746;6.304;2022-09-29T08:38:41;34.17;;;20.73;;
59555;SDS011;45374;52.746;6.304;2022-09-29T08:41:54;38.38;;;21.05;;
59555;SDS011;45374;52.746;6.304;2022-09-29T08:49:52;32.38;;;21.23;;
59555;SDS011;45374;52.746;6.304;2022-09-29T08:52:23;35.70;;;22.08;;
59555;SDS011;45374;52.746;6.304;2022-09-29T08:54:55;36.95;;;20.80;;
59555;SDS011;45374;52.746;6.304;2022-09-29T08:57:25;34.70;;;21.70;;
59555;SDS011;45374;52.746;6.304;2022-09-29T08:59:54;33.92;;;21.23;;
59555;SDS011;45374;52.746;6.304;2022-09-29T09:13:59;33.45;;;20.70;;
59555;SDS011;45374;52.746;6.304;2022-09-29T09:22:00;34.60;;;21.15;;
59555;SDS011;45374;52.746;6.304;2022-09-29T09:24:33;32.10;;;20.55;;
59555;SDS011;45374;52.746;6.304;2022-09-29T09:27:07;34.03;;;21.17;;
59555;SDS011;45374;52.746;6.304;2022-09-29T09:29:40;34.17;;;21.10;;
59555;SDS011;45374;52.746;6.304;2022-09-29T09:32:08;33.60;;;21.52;;
59555;SDS011;45374;52.746;6.304;2022-09-29T09:37:07;32.00;;;20.40;;
59555;SDS011;45374;52.746;6.304;2022-09-29T09:42:45;32.03;;;18.95;;
59555;SDS011;45374;52.746;6.304;2022-09-29T09:45:31;30.65;;;18.75;;
59555;SDS011;45374;52.746;6.304;2022-09-29T09:50:32;25.85;;;16.60;;
59555;SDS011;45374;52.746;6.304;2022-09-29T09:53:04;25.50;;;17.63;;
59555;SDS011;45374;52.746;6.304;2022-09-29T09:55:36;20.02;;;12.60;;
59555;SDS011;45374;52.746;6.304;2022-09-29T09:58:23;20.08;;;11.32;;
59555;SDS011;45374;52.746;6.304;2022-09-29T10:01:11;16.35;;;11.10;;
59555;SDS011;45374;52.746;6.304;2022-09-29T10:03:38;17.25;;;10.23;;
59555;SDS011;45374;52.746;6.304;2022-09-29T10:06:07;18.33;;;10.73;;
59555;SDS011;45374;52.746;6.304;2022-09-29T10:08:34;14.63;;;10.07;;
59555;SDS011;45374;52.746;6.304;2022-09-29T10:11:08;14.82;;;9.80;;
59555;SDS011;45374;52.746;6.304;2022-09-29T10:13:47;14.70;;;9.32;;
59555;SDS011;45374;52.746;6.304;2022-09-29T10:16:37;15.93;;;10.25;;
59555;SDS011;45374;52.746;6.304;2022-09-29T10:19:09;11.55;;;8.10;;
59555;SDS011;45374;52.746;6.304;2022-09-29T10:21:36;15.32;;;9.40;;
59555;SDS011;45374;52.746;6.304;2022-09-29T10:24:03;13.18;;;8.98;;
59555;SDS011;45374;52.746;6.304;2022-09-29T10:26:39;13.88;;;8.90;;
59555;SDS011;45374;52.746;6.304;2022-09-29T10:32:14;11.10;;;8.68;;
59555;SDS011;45374;52.746;6.304;2022-09-29T10:34:47;10.88;;;7.85;;
59555;SDS011;45374;52.746;6.304;2022-09-29T10:37:29;12.15;;;8.48;;
59555;SDS011;45374;52.746;6.304;2022-09-29T10:42:37;14.30;;;9.23;;
59555;SDS011;45374;52.746;6.304;2022-09-29T10:47:38;14.38;;;9.02;;
59555;SDS011;45374;52.746;6.304;2022-09-29T10:50:18;15.57;;;8.98;;
59555;SDS011;45374;52.746;6.304;2022-09-29T10:52:58;11.18;;;7.07;;
59555;SDS011;45374;52.746;6.304;2022-09-29T10:55:31;8.55;;;5.90;;
59555;SDS011;45374;52.746;6.304;2022-09-29T10:58:00;11.88;;;7.57;;
59555;SDS011;45374;52.746;6.304;2022-09-29T11:00:44;10.23;;;6.70;;
59555;SDS011;45374;52.746;6.304;2022-09-29T11:03:21;12.63;;;7.05;;
59555;SDS011;45374;52.746;6.304;2022-09-29T11:05:53;10.90;;;7.63;;
59555;SDS011;45374;52.746;6.304;2022-09-29T11:08:23;13.30;;;6.95;;
59555;SDS011;45374;52.746;6.304;2022-09-29T11:11:03;12.48;;;6.55;;
59555;SDS011;45374;52.746;6.304;2022-09-29T11:13:38;14.40;;;7.50;;
59555;SDS011;45374;52.746;6.304;2022-09-29T11:18:39;8.27;;;5.20;;
59555;SDS011;45374;52.746;6.304;2022-09-29T11:23:45;10.48;;;6.25;;
59555;SDS011;45374;52.746;6.304;2022-09-29T11:34:54;9.15;;;6.25;;
59555;SDS011;45374;52.746;6.304;2022-09-29T11:45:36;6.50;;;4.78;;
59555;SDS011;45374;52.746;6.304;2022-09-29T11:48:17;7.32;;;4.97;;
59555;SDS011;45374;52.746;6.304;2022-09-29T11:50:55;9.18;;;6.45;;
59555;SDS011;45374;52.746;6.304;2022-09-29T12:07:16;11.07;;;6.65;;
59555;SDS011;45374;52.746;6.304;2022-09-29T12:15:47;10.13;;;5.73;;
59555;SDS011;45374;52.746;6.304;2022-09-29T12:18:35;9.80;;;5.63;;
59555;SDS011;45374;52.746;6.304;2022-09-29T12:21:38;11.77;;;7.20;;
59555;SDS011;45374;52.746;6.304;2022-09-29T12:24:10;12.23;;;7.32;;
59555;SDS011;45374;52.746;6.304;2022-09-29T12:26:42;11.45;;;7.35;;
59555;SDS011;45374;52.746;6.304;2022-09-29T12:32:02;11.88;;;7.85;;
59555;SDS011;45374;52.746;6.304;2022-09-29T12:34:53;13.32;;;7.15;;
59555;SDS011;45374;52.746;6.304;2022-09-29T12:51:29;11.38;;;7.53;;
59555;SDS011;45374;52.746;6.304;2022-09-29T12:54:15;16.25;;;9.32;;
59555;SDS011;45374;52.746;6.304;2022-09-29T12:59:36;13.90;;;8.07;;
59555;SDS011;45374;52.746;6.304;2022-09-29T13:05:16;13.20;;;8.13;;
59555;SDS011;45374;52.746;6.304;2022-09-29T13:08:06;11.98;;;6.32;;
59555;SDS011;45374;52.746;6.304;2022-09-29T13:10:51;10.02;;;6.43;;
59555;SDS011;45374;52.746;6.304;2022-09-29T13:16:40;9.68;;;6.15;;
59555;SDS011;45374;52.746;6.304;2022-09-29T13:19:36;11.20;;;6.57;;
59555;SDS011;45374;52.746;6.304;2022-09-29T13:22:35;10.57;;;6.10;;
59555;SDS011;45374;52.746;6.304;2022-09-29T13:28:20;9.13;;;5.43;;
59555;SDS011;45374;52.746;6.304;2022-09-29T13:30:49;9.75;;;5.00;;
59555;SDS011;45374;52.746;6.304;2022-09-29T13:35:45;5.78;;;3.60;;
59555;SDS011;45374;52.746;6.304;2022-09-29T13:38:18;7.30;;;3.88;;
59555;SDS011;45374;52.746;6.304;2022-09-29T13:41:10;6.18;;;4.30;;
59555;SDS011;45374;52.746;6.304;2022-09-29T13:46:37;9.45;;;4.90;;
59555;SDS011;45374;52.746;6.304;2022-09-29T13:51:44;11.35;;;6.05;;
59555;SDS011;45374;52.746;6.304;2022-09-29T13:57:27;11.23;;;5.85;;
59555;SDS011;45374;52.746;6.304;2022-09-29T14:04:59;9.75;;;5.53;;
59555;SDS011;45374;52.746;6.304;2022-09-29T14:12:50;8.43;;;4.47;;
59555;SDS011;45374;52.746;6.304;2022-09-29T14:15:21;7.72;;;5.50;;
59555;SDS011;45374;52.746;6.304;2022-09-29T14:17:54;6.97;;;4.53;;
59555;SDS011;45374;52.746;6.304;2022-09-29T14:20:25;7.65;;;4.72;;
59555;SDS011;45374;52.746;6.304;2022-09-29T14:25:27;9.13;;;5.55;;
59555;SDS011;45374;52.746;6.304;2022-09-29T14:28:02;10.60;;;5.65;;
59555;SDS011;45374;52.746;6.304;2022-09-29T14:30:40;8.88;;;5.78;;
59555;SDS011;45374;52.746;6.304;2022-09-29T14:33:24;10.43;;;5.57;;
59555;SDS011;45374;52.746;6.304;2022-09-29T14:43:36;4.97;;;2.92;;
59555;SDS011;45374;52.746;6.304;2022-09-29T14:52:26;4.65;;;2.97;;
59555;SDS011;45374;52.746;6.304;2022-09-29T14:55:02;5.90;;;2.80;;
59555;SDS011;45374;52.746;6.304;2022-09-29T15:00:25;3.50;;;2.30;;
59555;SDS011;45374;52.746;6.304;2022-09-29T15:03:01;2.85;;;2.00;;
59555;SDS011;45374;52.746;6.304;2022-09-29T15:05:33;3.22;;;2.10;;
59555;SDS011;45374;52.746;6.304;2022-09-29T15:08:00;1.85;;;1.33;;
59555;SDS011;45374;52.746;6.304;2022-09-29T15:10:28;1.38;;;0.90;;
59555;SDS011;45374;52.746;6.304;2022-09-29T15:15:55;2.40;;;1.17;;
59555;SDS011;45374;52.746;6.304;2022-09-29T15:21:11;3.13;;;1.50;;
59555;SDS011;45374;52.746;6.304;2022-09-29T15:26:21;1.63;;;1.30;;
59555;SDS011;45374;52.746;6.304;2022-09-29T15:28:51;2.92;;;1.23;;
59555;SDS011;45374;52.746;6.304;2022-09-29T15:31:18;4.25;;;2.05;;
59555;SDS011;45374;52.746;6.304;2022-09-29T15:33:51;7.30;;;2.28;;
59555;SDS011;45374;52.746;6.304;2022-09-29T15:36:24;3.20;;;1.90;;
59555;SDS011;45374;52.746;6.304;2022-09-29T15:38:53;3.15;;;1.90;;
59555;SDS011;45374;52.746;6.304;2022-09-29T15:41:39;6.95;;;2.70;;
59555;SDS011;45374;52.746;6.304;2022-09-29T15:44:12;3.15;;;2.38;;
59555;SDS011;45374;52.746;6.304;2022-09-29T15:46:49;6.60;;;3.40;;
59555;SDS011;45374;52.746;6.304;2022-09-29T15:49:19;7.75;;;3.58;;
59555;SDS011;45374;52.746;6.304;2022-09-29T15:54:44;7.45;;;3.70;;
59555;SDS011;45374;52.746;6.304;2022-09-29T16:03:07;5.65;;;4.20;;
59555;SDS011;45374;52.746;6.304;2022-09-29T16:05:39;6.45;;;4.63;;
59555;SDS011;45374;52.746;6.304;2022-09-29T16:08:20;5.55;;;4.25;;
59555;SDS011;45374;52.746;6.304;2022-09-29T16:10:50;7.75;;;4.75;;
59555;SDS011;45374;52.746;6.304;2022-09-29T16:13:30;13.32;;;7.72;;
59555;SDS011;45374;52.746;6.304;2022-09-29T16:16:00;13.43;;;6.70;;
59555;SDS011;45374;52.746;6.304;2022-09-29T16:18:43;9.30;;;5.97;;
59555;SDS011;45374;52.746;6.304;2022-09-29T16:21:14;9.32;;;6.10;;
59555;SDS011;45374;52.746;6.304;2022-09-29T16:23:44;11.80;;;6.10;;
59555;SDS011;45374;52.746;6.304;2022-09-29T16:26:17;8.48;;;5.75;;
59555;SDS011;45374;52.746;6.304;2022-09-29T16:29:05;7.00;;;5.70;;
59555;SDS011;45374;52.746;6.304;2022-09-29T16:31:38;10.15;;;5.93;;
59555;SDS011;45374;52.746;6.304;2022-09-29T16:36:52;9.07;;;5.43;;
59555;SDS011;45374;52.746;6.304;2022-09-29T16:39:30;7.93;;;5.18;;
59555;SDS011;45374;52.746;6.304;2022-09-29T16:42:13;9.68;;;5.05;;
59555;SDS011;45374;52.746;6.304;2022-09-29T16:44:48;10.25;;;5.32;;
59555;SDS011;45374;52.746;6.304;2022-09-29T16:47:18;6.50;;;4.68;;
59555;SDS011;45374;52.746;6.304;2022-09-29T16:49:52;5.60;;;3.58;;
59555;SDS011;45374;52.746;6.304;2022-09-29T16:53:02;6.18;;;3.80;;
59555;SDS011;45374;52.746;6.304;2022-09-29T16:58:03;4.33;;;3.00;;
59555;SDS011;45374;52.746;6.304;2022-09-29T17:00:39;4.90;;;3.53;;
59555;SDS011;45374;52.746;6.304;2022-09-29T17:03:05;14.43;;;9.35;;
59555;SDS011;45374;52.746;6.304;2022-09-29T17:05:35;4.15;;;3.28;;
59555;SDS011;45374;52.746;6.304;2022-09-29T17:08:03;13.90;;;9.75;;
59555;SDS011;45374;52.746;6.304;2022-09-29T17:10:31;12.23;;;7.50;;
59555;SDS011;45374;52.746;6.304;2022-09-29T17:12:57;21.13;;;16.33;;
59555;SDS011;45374;52.746;6.304;2022-09-29T17:15:22;31.52;;;23.55;;
59555;SDS011;45374;52.746;6.304;2022-09-29T17:17:49;11.98;;;8.38;;
59555;SDS011;45374;52.746;6.304;2022-09-29T17:20:16;6.72;;;4.68;;
59555;SDS011;45374;52.746;6.304;2022-09-29T17:22:44;11.55;;;8.75;;
59555;SDS011;45374;52.746;6.304;2022-09-29T17:25:10;10.07;;;4.85;;
59555;SDS011;45374;52.746;6.304;2022-09-29T17:27:37;7.05;;;3.58;;
59555;SDS011;45374;52.746;6.304;2022-09-29T17:30:22;5.65;;;4.28;;
59555;SDS011;45374;52.746;6.304;2022-09-29T17:32:52;11.00;;;6.80;;
59555;SDS011;45374;52.746;6.304;2022-09-29T17:35:20;6.00;;;4.30;;
59555;SDS011;45374;52.746;6.304;2022-09-29T17:37:48;6.00;;;3.78;;
59555;SDS011;45374;52.746;6.304;2022-09-29T17:40:36;5.15;;;3.63;;
59555;SDS011;45374;52.746;6.304;2022-09-29T17:43:17;7.95;;;3.50;;
59555;SDS011;45374;52.746;6.304;2022-09-29T17:45:43;6.80;;;4.50;;
59555;SDS011;45374;52.746;6.304;2022-09-29T17:48:10;5.20;;;4.20;;
59555;SDS011;45374;52.746;6.304;2022-09-29T17:50:38;6.85;;;4.38;;
59555;SDS011;45374;52.746;6.304;2022-09-29T17:53:09;7.63;;;5.10;;
59555;SDS011;45374;52.746;6.304;2022-09-29T17:55:37;8.63;;;5.07;;
59555;SDS011;45374;52.746;6.304;2022-09-29T17:58:03;9.68;;;5.88;;
59555;SDS011;45374;52.746;6.304;2022-09-29T18:00:38;9.15;;;5.75;;
59555;SDS011;45374;52.746;6.304;2022-09-29T18:03:05;8.48;;;5.22;;
59555;SDS011;45374;52.746;6.304;2022-09-29T18:05:33;8.23;;;5.57;;
59555;SDS011;45374;52.746;6.304;2022-09-29T18:08:01;8.82;;;6.20;;
59555;SDS011;45374;52.746;6.304;2022-09-29T18:12:54;7.50;;;5.38;;
59555;SDS011;45374;52.746;6.304;2022-09-29T18:15:21;8.35;;;6.10;;
59555;SDS011;45374;52.746;6.304;2022-09-29T18:17:47;9.27;;;5.55;;
59555;SDS011;45374;52.746;6.304;2022-09-29T18:22:43;7.82;;;6.63;;
59555;SDS011;45374;52.746;6.304;2022-09-29T18:25:10;10.57;;;5.72;;
59555;SDS011;45374;52.746;6.304;2022-09-29T18:27:37;10.32;;;6.28;;
59555;SDS011;45374;52.746;6.304;2022-09-29T18:30:14;10.25;;;7.25;;
59555;SDS011;45374;52.746;6.304;2022-09-29T18:32:42;10.20;;;7.07;;
59555;SDS011;45374;52.746;6.304;2022-09-29T18:35:18;12.32;;;7.55;;
59555;SDS011;45374;52.746;6.304;2022-09-29T18:37:46;14.98;;;8.77;;
59555;SDS011;45374;52.746;6.304;2022-09-29T18:40:12;13.30;;;7.93;;